Time;durP1;ratioP1;P1;durP2;ratioP2;P2;SDS_P1;SDS_P2;PMS_P1;PMS_P2;Temp;Humidity;BMP_temperature;BMP_pressure;BME280_temperature;BME280_humidity;BME280_pressure;Samples;Min_cycle;Max_cycle;Signal;HPM_P1;HPM_P2
2023/03/29 00:01:35;;;;;;;2.40;1.80;;;9.70;56.10;;;;;;939981;148;27829;-76
2023/03/29 00:04:01;;;;;;;2.03;1.83;;;9.70;56.30;;;;;;940578;148;27342;-76
2023/03/29 00:06:31;;;;;;;2.03;1.83;;;9.70;56.40;;;;;;939020;148;27409;-75
2023/03/29 00:08:54;;;;;;;1.80;1.60;;;9.70;56.60;;;;;;939782;148;27572;-76
2023/03/29 00:11:21;;;;;;;1.93;1.83;;;9.70;56.60;;;;;;938190;148;27320;-76
2023/03/29 00:13:47;;;;;;;1.90;1.80;;;9.70;56.70;;;;;;939498;148;27352;-75
2023/03/29 00:16:14;;;;;;;3.57;2.10;;;9.60;56.80;;;;;;941268;148;27370;-75
2023/03/29 00:18:40;;;;;;;2.10;2.00;;;9.60;56.90;;;;;;938794;148;27397;-75
2023/03/29 00:21:07;;;;;;;2.40;1.90;;;9.60;56.90;;;;;;940985;148;27483;-76
2023/03/29 00:23:33;;;;;;;2.50;2.03;;;9.60;56.90;;;;;;939831;148;27257;-76
2023/03/29 00:26:00;;;;;;;2.10;1.90;;;9.60;57.00;;;;;;940093;148;27431;-76
2023/03/29 00:28:26;;;;;;;2.90;1.70;;;9.50;56.90;;;;;;940371;148;27704;-76
2023/03/29 00:30:53;;;;;;;2.27;2.07;;;9.60;57.00;;;;;;940108;148;27389;-75
2023/03/29 00:33:20;;;;;;;4.40;2.13;;;9.50;57.10;;;;;;940054;148;27384;-75
2023/03/29 00:35:47;;;;;;;2.47;1.77;;;9.50;57.10;;;;;;938664;148;27345;-75
2023/03/29 00:38:13;;;;;;;3.93;2.00;;;9.50;57.40;;;;;;941250;148;27442;-76
2023/03/29 00:40:42;;;;;;;1.73;1.53;;;9.40;57.60;;;;;;940418;148;27460;-75
2023/03/29 00:43:15;;;;;;;1.80;1.70;;;9.40;57.70;;;;;;940500;148;27504;-76
2023/03/29 00:45:41;;;;;;;2.00;1.80;;;9.40;57.80;;;;;;933333;148;27989;-76
2023/03/29 00:48:17;;;;;;;1.73;1.60;;;9.40;57.90;;;;;;931368;148;27302;-76
2023/03/29 00:51:00;;;;;;;2.77;1.93;;;9.40;58.00;;;;;;934421;148;27892;-76
2023/03/29 00:53:26;;;;;;;2.70;1.60;;;9.40;58.00;;;;;;931855;148;27769;-76
2023/03/29 00:56:01;;;;;;;1.83;1.60;;;9.40;58.20;;;;;;933119;148;27369;-76
2023/03/29 00:58:28;;;;;;;1.53;1.43;;;9.40;58.20;;;;;;933808;148;27275;-76
2023/03/29 01:00:57;;;;;;;2.67;1.53;;;9.40;58.40;;;;;;933654;148;27328;-76
2023/03/29 01:03:26;;;;;;;1.67;1.43;;;9.30;58.30;;;;;;934223;148;27318;-76
2023/03/29 01:05:53;;;;;;;2.00;1.63;;;9.30;58.40;;;;;;931985;148;27381;-75
2023/03/29 01:08:24;;;;;;;1.83;1.70;;;9.30;58.50;;;;;;932429;148;27410;-76
2023/03/29 01:10:55;;;;;;;2.33;2.00;;;9.30;58.60;;;;;;931893;148;27336;-76
2023/03/29 01:13:25;;;;;;;1.67;1.57;;;9.40;58.60;;;;;;931873;148;27372;-76
2023/03/29 01:15:51;;;;;;;1.67;1.57;;;9.30;58.60;;;;;;934455;148;27270;-76
2023/03/29 01:18:18;;;;;;;1.70;1.60;;;9.30;58.60;;;;;;930518;148;27283;-76
2023/03/29 01:21:05;;;;;;;3.03;1.60;;;9.30;58.60;;;;;;934376;148;27362;-76
2023/03/29 01:23:46;;;;;;;2.13;1.70;;;9.30;58.60;;;;;;923520;148;27507;-76
2023/03/29 01:26:41;;;;;;;1.60;1.50;;;9.30;58.40;;;;;;934399;148;27474;-76
2023/03/29 01:29:19;;;;;;;1.70;1.60;;;9.30;58.50;;;;;;932699;148;27867;-76
2023/03/29 01:31:45;;;;;;;2.23;1.77;;;9.30;58.60;;;;;;932065;148;27338;-76
2023/03/29 01:34:27;;;;;;;1.80;1.70;;;9.30;58.70;;;;;;932013;148;27321;-75
2023/03/29 01:37:03;;;;;;;1.60;1.50;;;9.30;58.80;;;;;;931364;148;27488;-75
2023/03/29 01:39:29;;;;;;;1.77;1.67;;;9.30;58.80;;;;;;932328;148;27394;-75
2023/03/29 01:42:08;;;;;;;1.90;1.60;;;9.30;58.80;;;;;;930925;148;27310;-75
2023/03/29 01:44:35;;;;;;;2.00;1.63;;;9.30;59.00;;;;;;931750;148;27393;-75
2023/03/29 01:47:04;;;;;;;2.40;1.73;;;9.30;59.00;;;;;;929313;149;27424;-75
2023/03/29 01:49:33;;;;;;;1.90;1.73;;;9.30;58.50;;;;;;933251;149;27365;-75
2023/03/29 01:52:06;;;;;;;2.50;1.73;;;9.30;59.20;;;;;;930735;149;27322;-75
2023/03/29 01:54:38;;;;;;;1.67;1.57;;;9.30;59.20;;;;;;934502;149;27519;-75
2023/03/29 01:57:05;;;;;;;2.97;1.77;;;9.30;59.30;;;;;;933598;149;27378;-75
2023/03/29 01:59:31;;;;;;;1.70;1.60;;;9.30;59.30;;;;;;936289;149;27382;-75
2023/03/29 02:01:58;;;;;;;2.30;1.63;;;9.30;59.30;;;;;;937633;148;27274;-75
2023/03/29 02:04:33;;;;;;;3.60;1.80;;;9.30;59.40;;;;;;940107;148;27301;-74
2023/03/29 02:07:00;;;;;;;2.40;1.80;;;9.30;59.50;;;;;;938797;148;27321;-75
2023/03/29 02:09:27;;;;;;;2.03;1.83;;;9.30;59.60;;;;;;938922;148;27440;-75
2023/03/29 02:11:53;;;;;;;1.50;1.40;;;9.30;59.50;;;;;;940781;148;27378;-74
2023/03/29 02:14:20;;;;;;;2.30;1.77;;;9.30;59.60;;;;;;939000;148;27299;-75
2023/03/29 02:16:48;;;;;;;1.60;1.50;;;9.20;59.60;;;;;;940416;148;27396;-74
2023/03/29 02:19:14;;;;;;;2.27;1.43;;;9.30;59.70;;;;;;939167;148;27337;-75
2023/03/29 02:21:39;;;;;;;1.53;1.40;;;9.30;59.80;;;;;;938849;148;27380;-74
2023/03/29 02:24:06;;;;;;;2.13;1.70;;;9.20;59.90;;;;;;941710;148;27305;-77
2023/03/29 02:26:33;;;;;;;1.97;1.40;;;9.20;60.00;;;;;;941924;148;27305;-75
2023/03/29 02:28:59;;;;;;;2.20;1.40;;;9.20;59.90;;;;;;939748;148;27363;-75
2023/03/29 02:31:35;;;;;;;1.50;1.40;;;9.20;59.90;;;;;;939678;148;27370;-74
2023/03/29 02:34:16;;;;;;;1.50;1.40;;;9.30;60.00;;;;;;940999;148;27894;-75
2023/03/29 02:36:43;;;;;;;1.70;1.40;;;9.20;59.90;;;;;;940162;147;27342;-75
2023/03/29 02:39:11;;;;;;;5.23;1.80;;;9.20;60.40;;;;;;938677;148;27364;-75
2023/03/29 02:41:36;;;;;;;1.50;1.40;;;9.20;60.00;;;;;;938463;148;27460;-75
2023/03/29 02:44:03;;;;;;;1.77;1.33;;;9.20;60.10;;;;;;939553;148;27467;-78
2023/03/29 02:46:29;;;;;;;2.30;1.60;;;9.20;60.10;;;;;;938874;148;27429;-77
2023/03/29 02:48:56;;;;;;;2.00;1.60;;;9.20;60.30;;;;;;939192;148;27904;-78
2023/03/29 02:51:25;;;;;;;1.63;1.53;;;9.20;60.30;;;;;;939594;148;27691;-78
2023/03/29 02:54:03;;;;;;;1.60;1.30;;;9.20;60.30;;;;;;939258;148;27840;-78
2023/03/29 02:56:30;;;;;;;2.33;1.40;;;9.20;60.40;;;;;;941317;148;27390;-78
2023/03/29 02:58:56;;;;;;;3.00;1.50;;;9.20;60.40;;;;;;938065;148;27321;-78
2023/03/29 03:01:23;;;;;;;3.00;1.50;;;9.20;60.30;;;;;;940239;148;27366;-77
2023/03/29 03:03:50;;;;;;;1.73;1.40;;;9.20;60.40;;;;;;938802;148;27373;-77
2023/03/29 03:06:17;;;;;;;1.73;1.50;;;9.20;60.70;;;;;;939265;148;27425;-78
2023/03/29 03:08:43;;;;;;;1.33;1.27;;;9.20;60.80;;;;;;939296;148;27498;-78
2023/03/29 03:11:09;;;;;;;1.63;1.53;;;9.20;60.90;;;;;;940984;148;27362;-78
2023/03/29 03:13:36;;;;;;;1.67;1.50;;;9.20;60.70;;;;;;939379;148;27359;-78
2023/03/29 03:16:02;;;;;;;1.77;1.53;;;9.20;61.00;;;;;;937287;148;27393;-77
2023/03/29 03:18:29;;;;;;;1.40;1.30;;;9.20;61.10;;;;;;937891;148;27346;-78
2023/03/29 03:20:56;;;;;;;2.40;1.93;;;9.20;61.20;;;;;;937436;148;27331;-77
2023/03/29 03:23:22;;;;;;;1.93;1.73;;;9.20;61.20;;;;;;940255;148;27301;-77
2023/03/29 03:25:49;;;;;;;1.70;1.60;;;9.20;61.90;;;;;;937533;148;27477;-78
2023/03/29 03:28:15;;;;;;;1.60;1.50;;;9.20;61.40;;;;;;941373;148;27471;-80
2023/03/29 03:30:42;;;;;;;1.73;1.43;;;9.20;61.40;;;;;;938899;148;27346;-80
2023/03/29 03:33:08;;;;;;;2.40;1.60;;;9.20;61.50;;;;;;939269;148;27285;-78
2023/03/29 03:35:37;;;;;;;1.93;1.30;;;9.20;61.50;;;;;;938805;148;27385;-78
2023/03/29 03:38:02;;;;;;;1.80;1.27;;;9.20;61.60;;;;;;940067;148;27789;-77
2023/03/29 03:40:28;;;;;;;1.47;1.37;;;9.20;61.70;;;;;;941050;148;27293;-78
2023/03/29 03:42:55;;;;;;;1.63;1.53;;;9.20;61.70;;;;;;940513;148;27299;-78
2023/03/29 03:45:21;;;;;;;1.33;1.23;;;9.20;61.70;;;;;;940023;148;27349;-77
2023/03/29 03:47:48;;;;;;;1.70;1.60;;;9.30;61.80;;;;;;935721;148;27527;-77
2023/03/29 03:50:15;;;;;;;1.57;1.47;;;9.30;61.90;;;;;;932928;148;27360;-77
2023/03/29 03:52:41;;;;;;;1.50;1.40;;;9.30;61.80;;;;;;933150;148;27341;-77
2023/03/29 03:55:08;;;;;;;1.40;1.30;;;9.30;62.00;;;;;;931862;148;27429;-78
2023/03/29 03:57:37;;;;;;;3.33;1.50;;;9.30;62.00;;;;;;926230;149;27392;-77
2023/03/29 04:00:12;;;;;;;1.70;1.60;;;9.30;62.00;;;;;;928269;149;27382;-78
2023/03/29 04:02:27;;;;;;;1.60;1.50;;;9.30;62.10;;;;;;927256;149;27422;-78
2023/03/29 04:04:54;;;;;;;1.83;1.40;;;9.30;62.10;;;;;;927123;149;27419;-80
2023/03/29 04:07:21;;;;;;;2.00;1.43;;;9.30;62.20;;;;;;927623;149;27349;-79
2023/03/29 04:09:47;;;;;;;1.87;1.70;;;9.40;62.30;;;;;;927345;149;27479;-80
2023/03/29 04:12:14;;;;;;;2.80;1.80;;;9.30;62.30;;;;;;927407;149;27370;-80
2023/03/29 04:14:40;;;;;;;1.60;1.50;;;9.30;62.20;;;;;;926728;149;27372;-78
2023/03/29 04:17:07;;;;;;;2.53;1.60;;;9.40;62.30;;;;;;926260;149;27320;-78
2023/03/29 04:19:34;;;;;;;2.30;1.63;;;9.40;62.40;;;;;;926754;149;27324;-78
2023/03/29 04:22:00;;;;;;;1.73;1.57;;;9.40;62.30;;;;;;925488;149;27480;-78
2023/03/29 04:24:27;;;;;;;1.67;1.40;;;9.40;62.40;;;;;;925837;149;27344;-78
2023/03/29 04:26:53;;;;;;;2.03;1.40;;;9.40;62.50;;;;;;928782;149;27332;-78
2023/03/29 04:29:20;;;;;;;1.93;1.30;;;9.40;62.30;;;;;;925580;149;27392;-78
2023/03/29 04:31:47;;;;;;;2.20;1.40;;;9.30;62.30;;;;;;927432;149;27373;-79
2023/03/29 04:34:13;;;;;;;1.87;1.30;;;9.30;62.10;;;;;;929596;149;27370;-79
2023/03/29 04:36:40;;;;;;;1.80;1.43;;;9.30;62.30;;;;;;926511;149;27340;-79
2023/03/29 04:39:06;;;;;;;1.50;1.40;;;9.30;62.30;;;;;;927075;149;27867;-78
2023/03/29 04:41:33;;;;;;;1.50;1.40;;;9.30;62.50;;;;;;926581;149;27343;-79
2023/03/29 04:44:02;;;;;;;1.13;1.10;;;9.30;62.50;;;;;;926633;149;27484;-80
2023/03/29 04:46:26;;;;;;;2.27;1.33;;;9.30;62.60;;;;;;926317;149;27554;-80
2023/03/29 04:48:53;;;;;;;1.60;1.50;;;9.30;62.50;;;;;;932877;149;27366;-80
2023/03/29 04:51:21;;;;;;;1.57;1.47;;;9.30;62.60;;;;;;933544;149;27423;-80
2023/03/29 04:53:46;;;;;;;1.63;1.50;;;9.30;62.80;;;;;;933351;149;27448;-79
2023/03/29 04:56:12;;;;;;;1.40;1.30;;;9.30;62.80;;;;;;933322;149;27398;-78
2023/03/29 04:58:39;;;;;;;1.50;1.40;;;9.30;62.90;;;;;;935039;149;27342;-78
2023/03/29 05:01:05;;;;;;;1.60;1.40;;;9.30;62.90;;;;;;934293;149;27443;-78
2023/03/29 05:03:33;;;;;;;1.80;1.70;;;9.30;62.90;;;;;;933394;149;27354;-81
2023/03/29 05:06:05;;;;;;;2.60;1.57;;;9.40;62.90;;;;;;934284;149;28368;-80
2023/03/29 05:08:28;;;;;;;1.93;1.70;;;9.40;62.90;;;;;;932824;149;27384;-81
2023/03/29 05:10:55;;;;;;;2.80;1.50;;;9.40;63.10;;;;;;934118;149;27373;-79
2023/03/29 05:13:21;;;;;;;2.43;1.80;;;9.40;63.10;;;;;;931751;149;27432;-78
2023/03/29 05:15:48;;;;;;;2.73;1.70;;;9.40;63.10;;;;;;933807;149;27487;-78
2023/03/29 05:18:14;;;;;;;2.10;1.53;;;9.40;63.10;;;;;;932674;149;27366;-78
2023/03/29 05:20:41;;;;;;;3.47;2.20;;;9.40;63.20;;;;;;934687;149;27306;-78
2023/03/29 05:23:08;;;;;;;4.63;1.70;;;9.50;63.30;;;;;;933668;149;27712;-78
2023/03/29 05:25:34;;;;;;;2.13;1.93;;;9.50;63.30;;;;;;932918;149;27363;-78
2023/03/29 05:28:01;;;;;;;2.40;1.97;;;9.50;63.40;;;;;;933514;149;27457;-78
2023/03/29 05:30:27;;;;;;;3.80;1.73;;;9.50;63.40;;;;;;934143;149;27276;-78
2023/03/29 05:32:54;;;;;;;2.23;1.90;;;9.60;63.40;;;;;;932304;149;27366;-78
2023/03/29 05:35:22;;;;;;;2.40;2.20;;;9.60;63.40;;;;;;933515;149;27398;-79
2023/03/29 05:37:48;;;;;;;1.87;1.77;;;9.60;63.50;;;;;;931689;149;27484;-79
2023/03/29 05:40:14;;;;;;;1.97;1.77;;;9.70;63.60;;;;;;937372;149;27359;-78
2023/03/29 05:42:40;;;;;;;2.87;2.07;;;9.70;63.50;;;;;;939924;148;27366;-78
2023/03/29 05:45:07;;;;;;;2.50;2.20;;;9.70;63.50;;;;;;940003;148;27325;-78
2023/03/29 05:47:34;;;;;;;2.00;1.80;;;9.80;63.50;;;;;;940977;148;27317;-78
2023/03/29 05:50:00;;;;;;;1.90;1.70;;;9.80;63.50;;;;;;938325;148;27393;-78
2023/03/29 05:52:27;;;;;;;2.23;2.03;;;9.90;63.50;;;;;;939384;148;27560;-78
2023/03/29 05:54:53;;;;;;;2.87;2.00;;;9.90;63.50;;;;;;937820;148;27432;-79
2023/03/29 05:57:20;;;;;;;3.30;2.00;;;9.90;63.50;;;;;;938706;148;27923;-78
2023/03/29 05:59:47;;;;;;;2.60;1.80;;;10.00;63.50;;;;;;940377;148;27333;-78
2023/03/29 06:02:15;;;;;;;2.73;1.77;;;10.00;63.60;;;;;;938243;148;27451;-78
2023/03/29 06:04:40;;;;;;;2.37;1.80;;;10.10;63.60;;;;;;938755;148;27353;-79
2023/03/29 06:07:07;;;;;;;3.13;2.00;;;10.10;63.60;;;;;;938753;148;27394;-78
2023/03/29 06:09:33;;;;;;;3.00;2.17;;;10.20;63.60;;;;;;939709;148;27508;-80
2023/03/29 06:12:00;;;;;;;3.17;1.60;;;10.20;63.50;;;;;;938854;148;27367;-80
2023/03/29 06:14:26;;;;;;;2.03;1.60;;;10.30;63.50;;;;;;940203;148;27326;-80
2023/03/29 06:16:53;;;;;;;3.43;1.90;;;10.30;63.60;;;;;;940942;148;27354;-80
2023/03/29 06:19:19;;;;;;;3.30;2.03;;;10.40;63.50;;;;;;939444;148;28013;-79
2023/03/29 06:21:46;;;;;;;2.00;1.90;;;10.40;63.60;;;;;;939954;148;27420;-80
2023/03/29 06:24:12;;;;;;;2.60;1.80;;;10.50;63.70;;;;;;940928;148;27297;-80
2023/03/29 06:26:39;;;;;;;9.23;2.10;;;10.50;63.50;;;;;;938699;148;27331;-75
2023/03/29 06:29:07;;;;;;;2.10;1.90;;;10.60;63.60;;;;;;939962;148;27497;-75
2023/03/29 06:31:34;;;;;;;2.30;2.10;;;10.60;63.60;;;;;;939810;148;27273;-75
2023/03/29 06:34:00;;;;;;;2.57;2.10;;;10.70;63.60;;;;;;939731;148;27434;-75
2023/03/29 06:36:25;;;;;;;4.13;2.10;;;10.80;63.60;;;;;;939444;148;27361;-75
2023/03/29 06:38:52;;;;;;;2.07;1.87;;;10.90;63.60;;;;;;940194;148;27377;-75
2023/03/29 06:41:19;;;;;;;2.70;1.90;;;11.00;63.50;;;;;;939121;148;27888;-75
2023/03/29 06:43:45;;;;;;;1.90;1.80;;;11.10;63.30;;;;;;939191;148;27332;-76
2023/03/29 06:46:12;;;;;;;1.97;1.63;;;11.10;63.30;;;;;;940707;148;27348;-75
2023/03/29 06:48:39;;;;;;;2.17;1.77;;;11.20;63.20;;;;;;938056;148;27415;-75
2023/03/29 06:51:06;;;;;;;2.10;1.90;;;11.30;63.20;;;;;;935539;149;27479;-75
2023/03/29 06:53:32;;;;;;;2.10;1.90;;;11.40;63.20;;;;;;933461;148;27533;-75
2023/03/29 06:55:58;;;;;;;2.53;1.70;;;11.40;63.00;;;;;;935468;148;27332;-75
2023/03/29 06:58:25;;;;;;;2.97;1.70;;;11.50;63.10;;;;;;931333;148;27314;-76
2023/03/29 07:00:52;;;;;;;1.70;1.60;;;11.60;63.10;;;;;;931500;148;27314;-75
2023/03/29 07:03:22;;;;;;;2.87;1.90;;;11.70;63.00;;;;;;933600;148;27386;-76
2023/03/29 07:05:49;;;;;;;1.63;1.50;;;11.90;62.20;;;;;;935505;148;27307;-76
2023/03/29 07:08:15;;;;;;;1.60;1.50;;;12.00;62.90;;;;;;930256;148;27373;-76
2023/03/29 07:10:40;;;;;;;2.73;1.80;;;12.10;63.00;;;;;;933065;148;27351;-75
2023/03/29 07:13:07;;;;;;;2.47;1.97;;;12.30;63.00;;;;;;932126;148;27387;-76
2023/03/29 07:15:33;;;;;;;1.97;1.60;;;12.50;63.10;;;;;;932313;148;27359;-76
2023/03/29 07:18:02;;;;;;;1.90;1.67;;;12.70;62.90;;;;;;932532;148;27795;-76
2023/03/29 07:20:27;;;;;;;2.03;1.80;;;12.90;62.80;;;;;;935857;148;27448;-76
2023/03/29 07:22:53;;;;;;;1.95;1.75;;;13.20;62.80;;;;;;935654;148;27364;-76
2023/03/29 07:25:20;;;;;;;1.70;1.60;;;13.40;62.40;;;;;;933382;148;27371;-76
2023/03/29 07:27:46;;;;;;;2.17;1.98;;;13.60;62.00;;;;;;933387;148;27343;-76
2023/03/29 07:30:16;;;;;;;2.05;1.82;;;13.80;61.70;;;;;;933712;148;27351;-76
2023/03/29 07:32:43;;;;;;;2.98;1.50;;;13.90;61.30;;;;;;932910;148;27366;-76
2023/03/29 07:35:10;;;;;;;1.70;1.60;;;14.10;60.90;;;;;;933846;148;27358;-76
2023/03/29 07:37:36;;;;;;;2.05;1.60;;;14.20;60.50;;;;;;932317;148;27354;-76
2023/03/29 07:40:07;;;;;;;2.05;1.85;;;14.30;60.10;;;;;;934331;148;28447;-76
2023/03/29 07:42:29;;;;;;;1.87;1.62;;;14.40;59.80;;;;;;933564;148;27342;-76
2023/03/29 07:44:57;;;;;;;2.50;1.72;;;14.50;59.40;;;;;;932080;148;27433;-76
2023/03/29 07:47:23;;;;;;;2.85;1.80;;;14.50;59.10;;;;;;931579;148;27358;-76
2023/03/29 07:49:49;;;;;;;1.85;1.67;;;14.50;59.00;;;;;;930344;148;27396;-76
2023/03/29 07:52:16;;;;;;;2.70;1.98;;;14.50;58.90;;;;;;931078;149;27411;-75
2023/03/29 07:54:42;;;;;;;2.50;2.30;;;14.50;58.80;;;;;;931695;149;27318;-76
2023/03/29 07:57:08;;;;;;;2.77;2.20;;;14.50;58.70;;;;;;933935;149;27387;-76
2023/03/29 07:59:35;;;;;;;2.30;2.10;;;14.50;58.80;;;;;;934588;149;27374;-76
2023/03/29 08:02:02;;;;;;;1.87;1.77;;;14.50;58.80;;;;;;933095;149;27289;-76
2023/03/29 08:04:28;;;;;;;3.65;2.15;;;14.60;58.80;;;;;;933532;149;27328;-76
2023/03/29 08:06:55;;;;;;;2.50;2.17;;;14.60;58.60;;;;;;935492;149;27451;-76
2023/03/29 08:09:21;;;;;;;2.17;1.98;;;14.70;58.60;;;;;;934737;149;27501;-76
2023/03/29 08:11:48;;;;;;;2.65;1.60;;;14.70;58.40;;;;;;932950;149;27355;-75
2023/03/29 08:14:15;;;;;;;2.72;2.10;;;14.80;58.30;;;;;;939031;148;27681;-76
2023/03/29 08:16:41;;;;;;;2.83;2.00;;;14.80;58.00;;;;;;940949;148;27503;-76
2023/03/29 08:19:08;;;;;;;2.15;1.95;;;14.80;57.90;;;;;;939536;148;27483;-76
2023/03/29 08:21:35;;;;;;;2.37;2.00;;;14.80;57.80;;;;;;940333;148;27360;-76
2023/03/29 08:24:01;;;;;;;2.10;1.85;;;14.80;57.70;;;;;;941089;148;27292;-76
2023/03/29 08:26:28;;;;;;;2.50;2.02;;;14.80;57.70;;;;;;939700;148;27320;-76
2023/03/29 08:28:54;;;;;;;1.98;1.77;;;14.70;57.60;;;;;;937762;148;27345;-76
2023/03/29 08:31:21;;;;;;;2.52;2.00;;;14.70;57.60;;;;;;939818;148;27459;-77
2023/03/29 08:33:47;;;;;;;3.17;2.27;;;14.70;57.50;;;;;;938603;148;27395;-78
2023/03/29 08:36:14;;;;;;;1.98;1.77;;;14.70;57.40;;;;;;938676;148;27333;-77
2023/03/29 08:38:40;;;;;;;1.87;1.70;;;14.70;57.60;;;;;;941584;148;27418;-77
2023/03/29 08:41:35;;;;;;;2.92;2.20;;;14.70;58.20;;;;;;940122;148;27324;-77
2023/03/29 08:44:14;;;;;;;2.08;1.87;;;14.70;57.80;;;;;;935154;148;27322;-78
2023/03/29 08:46:59;;;;;;;3.15;1.75;;;14.70;58.00;;;;;;938273;148;27364;-78
2023/03/29 08:49:25;;;;;;;2.22;2.02;;;14.80;58.10;;;;;;940800;148;27405;-77
2023/03/29 08:51:55;;;;;;;2.30;2.10;;;15.00;58.20;;;;;;937335;148;27536;-77
2023/03/29 08:54:23;;;;;;;1.98;1.70;;;15.10;58.10;;;;;;933403;148;27412;-77
2023/03/29 08:56:48;;;;;;;2.27;2.08;;;15.10;57.90;;;;;;934222;148;27298;-77
2023/03/29 08:59:21;;;;;;;2.05;1.90;;;15.20;57.80;;;;;;933287;148;27404;-78
2023/03/29 09:01:47;;;;;;;2.92;1.98;;;15.40;57.70;;;;;;930067;148;27359;-77
2023/03/29 09:04:14;;;;;;;1.92;1.82;;;15.40;57.60;;;;;;933809;148;27343;-77
2023/03/29 09:06:40;;;;;;;2.20;2.00;;;15.50;57.50;;;;;;907923;152;27309;-78
2023/03/29 09:09:12;;;;;;;2.77;1.92;;;15.70;57.50;;;;;;933824;148;27426;-77
2023/03/29 09:11:48;;;;;;;1.67;1.57;;;15.80;57.50;;;;;;930106;148;27419;-77
2023/03/29 09:14:20;;;;;;;2.52;1.90;;;15.90;57.20;;;;;;931859;148;27349;-77
2023/03/29 09:17:05;;;;;;;1.70;1.60;;;16.00;57.10;;;;;;932190;148;27486;-77
2023/03/29 09:19:47;;;;;;;1.92;1.75;;;16.20;57.00;;;;;;909391;152;27523;-77
2023/03/29 09:22:32;;;;;;;2.42;1.92;;;16.30;56.80;;;;;;930746;148;27430;-77
2023/03/29 09:25:10;;;;;;;1.77;1.62;;;16.50;56.80;;;;;;931404;148;27302;-77
2023/03/29 09:27:49;;;;;;;1.40;1.30;;;16.60;56.80;;;;;;933926;148;27318;-77
2023/03/29 09:30:27;;;;;;;3.37;2.10;;;16.80;56.50;;;;;;933488;148;27370;-77
2023/03/29 09:32:57;;;;;;;2.85;1.57;;;17.00;56.30;;;;;;932395;148;27368;-77
2023/03/29 09:35:41;;;;;;;2.98;1.50;;;17.10;56.20;;;;;;932969;148;27326;-77
2023/03/29 09:38:11;;;;;;;2.10;1.77;;;17.20;55.80;;;;;;930641;148;27322;-77
2023/03/29 09:40:49;;;;;;;3.45;1.80;;;17.40;55.60;;;;;;934728;148;27364;-77
2023/03/29 09:43:17;;;;;;;2.45;1.47;;;17.50;55.50;;;;;;935282;148;27386;-77
2023/03/29 09:45:42;;;;;;;2.35;1.92;;;17.70;55.50;;;;;;932279;148;27391;-77
2023/03/29 09:48:15;;;;;;;1.90;1.60;;;17.80;55.20;;;;;;932850;148;27390;-77
2023/03/29 09:50:47;;;;;;;2.75;1.87;;;17.90;55.00;;;;;;934525;148;27451;-77
2023/03/29 09:53:14;;;;;;;3.12;1.57;;;18.00;54.90;;;;;;936528;148;27432;-77
2023/03/29 09:55:40;;;;;;;2.17;1.72;;;18.20;54.80;;;;;;900521;155;27407;-77
2023/03/29 09:58:13;;;;;;;4.33;1.98;;;18.30;54.70;;;;;;915957;152;27449;-77
2023/03/29 10:00:39;;;;;;;2.67;2.47;;;18.50;54.60;;;;;;915754;152;27344;-77
2023/03/29 10:03:06;;;;;;;2.02;1.52;;;18.60;54.20;;;;;;898453;156;27406;-77
2023/03/29 10:05:35;;;;;;;3.33;1.72;;;18.80;54.20;;;;;;937390;149;27342;-77
2023/03/29 10:07:59;;;;;;;2.10;1.90;;;19.00;54.00;;;;;;913765;153;27394;-77
2023/03/29 10:10:28;;;;;;;2.40;2.20;;;19.10;53.40;;;;;;900737;155;27327;-77
2023/03/29 10:12:58;;;;;;;2.40;2.00;;;19.30;53.00;;;;;;900150;154;27520;-77
2023/03/29 10:15:24;;;;;;;2.55;1.75;;;19.40;52.50;;;;;;899097;155;27741;-77
2023/03/29 10:17:51;;;;;;;4.22;2.10;;;19.40;52.30;;;;;;898946;155;27396;-77
2023/03/29 10:20:17;;;;;;;1.80;1.55;;;19.40;52.20;;;;;;916354;152;27413;-77
2023/03/29 10:22:50;;;;;;;1.37;1.20;;;19.40;52.10;;;;;;907719;155;27405;-77
2023/03/29 10:25:17;;;;;;;2.12;1.60;;;19.40;52.20;;;;;;906825;154;27357;-76
2023/03/29 10:27:43;;;;;;;2.55;1.80;;;19.40;52.10;;;;;;914274;152;27389;-76
2023/03/29 10:30:11;;;;;;;1.65;1.55;;;19.50;52.20;;;;;;901145;154;27391;-76
2023/03/29 10:32:38;;;;;;;2.17;1.82;;;19.50;52.20;;;;;;916472;152;27475;-76
2023/03/29 10:35:14;;;;;;;2.52;1.80;;;19.60;52.30;;;;;;913897;153;27457;-74
2023/03/29 10:37:44;;;;;;;2.02;1.82;;;19.70;52.40;;;;;;915714;152;27865;-74
2023/03/29 10:40:20;;;;;;;1.70;1.60;;;19.80;52.50;;;;;;915118;152;27345;-74
2023/03/29 10:42:46;;;;;;;1.80;1.52;;;19.90;52.30;;;;;;897402;154;27482;-74
2023/03/29 10:45:24;;;;;;;1.45;1.35;;;20.00;52.00;;;;;;919102;152;27414;-74
2023/03/29 10:47:51;;;;;;;2.00;1.52;;;20.10;51.70;;;;;;919794;152;27369;-73
2023/03/29 10:50:17;;;;;;;2.00;1.25;;;20.20;51.10;;;;;;917675;152;27463;-74
2023/03/29 10:52:44;;;;;;;1.62;1.52;;;20.20;50.80;;;;;;906435;153;27503;-74
2023/03/29 10:55:13;;;;;;;1.60;1.50;;;20.20;51.20;;;;;;928566;150;27326;-74
2023/03/29 10:57:42;;;;;;;2.15;1.67;;;20.30;51.30;;;;;;914012;153;27493;-73
2023/03/29 11:00:31;;;;;;;2.42;1.50;;;20.30;51.30;;;;;;911970;153;27409;-74
2023/03/29 11:03:11;;;;;;;1.25;1.12;;;20.40;51.10;;;;;;920195;153;27733;-74
2023/03/29 11:05:45;;;;;;;1.75;1.60;;;20.50;51.20;;;;;;912823;153;27464;-74
2023/03/29 11:08:31;;;;;;;1.75;1.27;;;20.60;50.90;;;;;;925256;150;27419;-74
2023/03/29 11:11:16;;;;;;;1.42;1.32;;;20.60;50.60;;;;;;910632;152;27390;-74
2023/03/29 11:13:49;;;;;;;1.75;1.60;;;20.70;50.70;;;;;;911396;152;27529;-74
2023/03/29 11:16:30;;;;;;;1.25;1.15;;;20.70;50.80;;;;;;926676;151;27365;-74
2023/03/29 11:19:03;;;;;;;1.30;1.20;;;20.80;50.80;;;;;;926185;149;27327;-74
2023/03/29 11:21:38;;;;;;;1.32;1.22;;;20.90;51.00;;;;;;925722;149;27500;-74
2023/03/29 11:24:13;;;;;;;3.37;1.70;;;20.90;50.80;;;;;;926240;149;27373;-74
2023/03/29 11:26:40;;;;;;;1.72;1.22;;;21.10;50.80;;;;;;927889;149;27416;-74
2023/03/29 11:29:07;;;;;;;2.15;1.60;;;21.20;50.70;;;;;;923730;149;27347;-74
2023/03/29 11:31:36;;;;;;;2.00;1.35;;;21.30;50.60;;;;;;925597;149;27374;-74
2023/03/29 11:34:23;;;;;;;1.30;1.20;;;21.50;50.60;;;;;;925362;149;27388;-73
2023/03/29 11:37:17;;;;;;;1.92;1.55;;;21.60;50.20;;;;;;926339;149;27449;-73
2023/03/29 11:39:43;;;;;;;1.95;1.47;;;21.70;50.20;;;;;;925031;149;27295;-73
2023/03/29 11:42:25;;;;;;;2.30;1.90;;;21.80;50.30;;;;;;927488;149;27355;-73
2023/03/29 11:44:51;;;;;;;1.70;1.45;;;22.00;50.10;;;;;;927931;149;27426;-73
2023/03/29 11:47:23;;;;;;;1.32;1.20;;;22.00;50.00;;;;;;928145;149;27323;-73
2023/03/29 11:49:51;;;;;;;1.82;1.37;;;22.10;49.90;;;;;;926520;149;27329;-74
2023/03/29 11:52:23;;;;;;;1.87;1.30;;;22.20;49.80;;;;;;927713;149;27979;-73
2023/03/29 11:54:49;;;;;;;1.60;1.50;;;22.30;49.50;;;;;;937828;149;27472;-73
2023/03/29 11:57:18;;;;;;;2.95;2.02;;;22.30;49.40;;;;;;939358;149;27463;-73
2023/03/29 11:59:56;;;;;;;1.85;1.40;;;22.30;49.30;;;;;;938448;149;27365;-73
2023/03/29 12:02:28;;;;;;;3.30;1.62;;;22.40;49.30;;;;;;934397;149;27468;-73
2023/03/29 12:04:55;;;;;;;1.35;1.25;;;22.40;49.30;;;;;;940301;149;27443;-74
2023/03/29 12:07:37;;;;;;;2.65;1.90;;;22.40;49.20;;;;;;939355;149;27500;-73
2023/03/29 12:10:15;;;;;;;1.52;1.42;;;22.40;48.90;;;;;;935814;149;27519;-74
2023/03/29 12:12:45;;;;;;;1.65;1.12;;;22.50;49.20;;;;;;936225;149;27379;-73
2023/03/29 12:15:19;;;;;;;2.60;1.50;;;22.50;49.40;;;;;;938613;149;27460;-73
2023/03/29 12:18:09;;;;;;;2.15;1.40;;;22.60;49.40;;;;;;938283;149;27384;-73
2023/03/29 12:20:35;;;;;;;1.30;1.20;;;22.70;49.00;;;;;;937837;148;27470;-74
2023/03/29 12:23:02;;;;;;;2.00;1.40;;;22.70;48.90;;;;;;939369;149;27390;-74
2023/03/29 12:25:31;;;;;;;1.50;1.40;;;22.70;48.70;;;;;;936152;149;27337;-74
2023/03/29 12:28:13;;;;;;;1.20;1.10;;;22.70;48.30;;;;;;935817;149;27914;-74
2023/03/29 12:30:42;;;;;;;1.77;1.40;;;22.70;48.30;;;;;;939599;149;27369;-74
2023/03/29 12:33:17;;;;;;;1.85;1.30;;;22.50;48.30;;;;;;938107;149;27381;-74
2023/03/29 12:36:15;;;;;;;4.17;2.15;;;22.50;48.50;;;;;;939987;149;27347;-74
2023/03/29 12:38:41;;;;;;;11.78;6.95;;;22.40;48.50;;;;;;939287;149;27403;-74
2023/03/29 12:41:17;;;;;;;5.55;4.03;;;22.30;48.50;;;;;;938985;149;27360;-73
2023/03/29 12:43:44;;;;;;;7.35;5.42;;;22.20;48.60;;;;;;938456;149;27378;-74
2023/03/29 12:46:18;;;;;;;4.28;3.45;;;22.10;48.70;;;;;;937227;149;27379;-73
2023/03/29 12:48:45;;;;;;;2.40;2.20;;;22.00;48.80;;;;;;938562;148;27351;-74
2023/03/29 12:51:12;;;;;;;2.08;1.52;;;21.90;49.00;;;;;;935446;149;27355;-74
2023/03/29 12:53:38;;;;;;;1.60;1.42;;;21.90;49.20;;;;;;936574;149;27375;-74
2023/03/29 12:56:07;;;;;;;2.05;1.17;;;21.80;49.30;;;;;;933943;149;27481;-74
2023/03/29 12:58:50;;;;;;;1.37;1.27;;;21.80;49.40;;;;;;925612;149;27371;-74
2023/03/29 13:01:25;;;;;;;2.87;1.62;;;21.80;49.40;;;;;;915156;152;27390;-74